sensor_id;sensor_type;location;lat;lon;timestamp;pressure;altitude;pressure_sealevel;temperature;humidity
73429;BME280;61643;49.564;17.412;2023-05-17T00:00:10;97820.00;;;10.31;100.00
73429;BME280;61643;49.564;17.412;2023-05-17T00:02:36;97816.25;;;10.27;100.00
73429;BME280;61643;49.564;17.412;2023-05-17T00:05:02;97821.06;;;10.20;100.00
73429;BME280;61643;49.564;17.412;2023-05-17T00:07:28;97816.47;;;10.20;100.00
73429;BME280;61643;49.564;17.412;2023-05-17T00:09:54;97818.84;;;10.12;100.00
73429;BME280;61643;49.564;17.412;2023-05-17T00:12:20;97814.28;;;10.12;100.00
73429;BME280;61643;49.564;17.412;2023-05-17T00:14:46;97815.13;;;10.18;100.00
73429;BME280;61643;49.564;17.412;2023-05-17T00:17:12;97822.38;;;10.17;100.00
73429;BME280;61643;49.564;17.412;2023-05-17T00:19:38;97817.03;;;10.22;100.00
73429;BME280;61643;49.564;17.412;2023-05-17T00:22:04;97813.50;;;10.17;100.00
73429;BME280;61643;49.564;17.412;2023-05-17T00:24:30;97815.13;;;10.18;100.00
73429;BME280;61643;49.564;17.412;2023-05-17T00:26:56;97819.72;;;10.22;100.00
73429;BME280;61643;49.564;17.412;2023-05-17T00:29:22;97818.66;;;10.23;100.00
73429;BME280;61643;49.564;17.412;2023-05-17T00:31:48;97809.50;;;10.19;100.00
73429;BME280;61643;49.564;17.412;2023-05-17T00:34:13;97805.44;;;10.17;100.00
73429;BME280;61643;49.564;17.412;2023-05-17T00:36:40;97808.41;;;10.20;100.00
73429;BME280;61643;49.564;17.412;2023-05-17T00:39:06;97797.56;;;10.10;100.00
73429;BME280;61643;49.564;17.412;2023-05-17T00:41:32;97797.88;;;10.09;100.00
73429;BME280;61643;49.564;17.412;2023-05-17T00:43:58;97803.53;;;10.12;100.00
73429;BME280;61643;49.564;17.412;2023-05-17T00:46:24;97800.28;;;10.10;100.00
73429;BME280;61643;49.564;17.412;2023-05-17T00:48:50;97798.66;;;10.09;100.00
73429;BME280;61643;49.564;17.412;2023-05-17T00:51:18;97808.34;;;10.05;100.00
73429;BME280;61643;49.564;17.412;2023-05-17T00:53:44;97809.13;;;10.01;100.00
73429;BME280;61643;49.564;17.412;2023-05-17T00:56:10;97801.28;;;9.94;100.00
73429;BME280;61643;49.564;17.412;2023-05-17T00:58:37;97798.84;;;9.93;100.00
73429;BME280;61643;49.564;17.412;2023-05-17T01:01:03;97808.56;;;9.94;100.00
73429;BME280;61643;49.564;17.412;2023-05-17T01:03:29;97816.34;;;9.90;100.00
73429;BME280;61643;49.564;17.412;2023-05-17T01:05:55;97815.84;;;9.98;100.00
73429;BME280;61643;49.564;17.412;2023-05-17T01:08:21;97818.97;;;9.85;100.00
73429;BME280;61643;49.564;17.412;2023-05-17T01:13:57;97828.09;;;9.84;100.00
73429;BME280;61643;49.564;17.412;2023-05-17T01:25:26;97837.13;;;9.63;100.00
73429;BME280;61643;49.564;17.412;2023-05-17T01:27:53;97829.59;;;9.60;100.00
73429;BME280;61643;49.564;17.412;2023-05-17T01:30:21;97824.63;;;9.42;100.00
73429;BME280;61643;49.564;17.412;2023-05-17T01:32:52;97817.44;;;9.52;100.00
73429;BME280;61643;49.564;17.412;2023-05-17T01:35:20;97818.22;;;9.43;100.00
73429;BME280;61643;49.564;17.412;2023-05-17T01:37:46;97822.00;;;9.47;100.00
73429;BME280;61643;49.564;17.412;2023-05-17T01:40:12;97830.56;;;9.44;100.00
73429;BME280;61643;49.564;17.412;2023-05-17T01:42:40;97810.69;;;9.45;100.00
73429;BME280;61643;49.564;17.412;2023-05-17T01:45:30;97823.28;;;9.39;100.00
73429;BME280;61643;49.564;17.412;2023-05-17T01:48:16;97830.00;;;9.42;100.00
73429;BME280;61643;49.564;17.412;2023-05-17T01:50:47;97834.31;;;9.43;100.00
73429;BME280;61643;49.564;17.412;2023-05-17T01:53:29;97846.88;;;9.37;100.00
73429;BME280;61643;49.564;17.412;2023-05-17T01:56:01;97854.69;;;9.38;100.00
73429;BME280;61643;49.564;17.412;2023-05-17T01:58:29;97867.63;;;9.42;100.00
73429;BME280;61643;49.564;17.412;2023-05-17T02:00:56;97863.81;;;9.32;100.00
73429;BME280;61643;49.564;17.412;2023-05-17T02:03:23;97863.53;;;9.34;100.00
73429;BME280;61643;49.564;17.412;2023-05-17T02:05:49;97867.31;;;9.38;100.00
73429;BME280;61643;49.564;17.412;2023-05-17T02:08:15;97866.50;;;9.32;100.00
73429;BME280;61643;49.564;17.412;2023-05-17T02:10:41;97850.31;;;9.27;100.00
73429;BME280;61643;49.564;17.412;2023-05-17T02:13:07;97851.13;;;9.28;100.00
73429;BME280;61643;49.564;17.412;2023-05-17T02:15:33;97849.78;;;9.25;100.00
73429;BME280;61643;49.564;17.412;2023-05-17T02:17:59;97849.00;;;9.30;100.00
73429;BME280;61643;49.564;17.412;2023-05-17T02:20:25;97835.56;;;9.30;100.00
73429;BME280;61643;49.564;17.412;2023-05-17T02:22:51;97841.16;;;9.23;100.00
73429;BME280;61643;49.564;17.412;2023-05-17T02:25:17;97842.25;;;9.27;100.00
73429;BME280;61643;49.564;17.412;2023-05-17T02:27:43;97855.41;;;9.24;100.00
73429;BME280;61643;49.564;17.412;2023-05-17T02:30:09;97870.75;;;9.28;100.00
73429;BME280;61643;49.564;17.412;2023-05-17T02:32:35;97865.09;;;9.25;100.00
73429;BME280;61643;49.564;17.412;2023-05-17T02:35:01;97874.25;;;9.29;100.00
73429;BME280;61643;49.564;17.412;2023-05-17T02:37:27;97883.13;;;9.29;100.00
73429;BME280;61643;49.564;17.412;2023-05-17T02:39:53;97863.00;;;9.32;100.00
73429;BME280;61643;49.564;17.412;2023-05-17T02:42:19;97862.13;;;9.26;100.00
73429;BME280;61643;49.564;17.412;2023-05-17T02:44:45;97857.19;;;9.13;100.00
73429;BME280;61643;49.564;17.412;2023-05-17T02:47:13;97863.91;;;9.16;100.00
73429;BME280;61643;49.564;17.412;2023-05-17T02:49:39;97841.00;;;9.03;100.00
73429;BME280;61643;49.564;17.412;2023-05-17T02:52:05;97865.47;;;9.07;100.00
73429;BME280;61643;49.564;17.412;2023-05-17T02:54:31;97882.91;;;9.04;100.00
73429;BME280;61643;49.564;17.412;2023-05-17T02:56:57;97856.72;;;8.89;100.00
73429;BME280;61643;49.564;17.412;2023-05-17T02:59:23;97871.53;;;8.97;100.00
73429;BME280;61643;49.564;17.412;2023-05-17T03:01:49;97880.38;;;8.93;100.00
73429;BME280;61643;49.564;17.412;2023-05-17T03:04:15;97866.66;;;8.89;100.00
73429;BME280;61643;49.564;17.412;2023-05-17T03:06:41;97864.19;;;8.82;100.00
73429;BME280;61643;49.564;17.412;2023-05-17T03:09:07;97887.31;;;8.88;100.00
73429;BME280;61643;49.564;17.412;2023-05-17T03:11:33;97879.47;;;8.82;100.00
73429;BME280;61643;49.564;17.412;2023-05-17T03:13:59;97892.59;;;8.83;100.00
73429;BME280;61643;49.564;17.412;2023-05-17T03:16:25;97887.31;;;8.88;100.00
73429;BME280;61643;49.564;17.412;2023-05-17T03:18:51;97898.28;;;8.87;100.00
73429;BME280;61643;49.564;17.412;2023-05-17T03:21:17;97903.19;;;8.68;100.00
73429;BME280;61643;49.564;17.412;2023-05-17T03:23:43;97914.78;;;8.74;100.00
73429;BME280;61643;49.564;17.412;2023-05-17T03:26:09;97892.75;;;8.72;100.00
73429;BME280;61643;49.564;17.412;2023-05-17T03:28:35;97922.78;;;8.69;100.00
73429;BME280;61643;49.564;17.412;2023-05-17T03:31:01;97916.59;;;8.68;100.00
73429;BME280;61643;49.564;17.412;2023-05-17T03:33:26;97934.63;;;8.73;100.00
73429;BME280;61643;49.564;17.412;2023-05-17T03:35:52;97936.25;;;8.74;100.00
73429;BME280;61643;49.564;17.412;2023-05-17T03:38:18;97956.66;;;8.75;100.00
73429;BME280;61643;49.564;17.412;2023-05-17T03:40:44;97956.06;;;8.68;100.00
73429;BME280;61643;49.564;17.412;2023-05-17T03:43:10;97969.94;;;8.65;100.00
73429;BME280;61643;49.564;17.412;2023-05-17T03:45:36;97966.22;;;8.66;100.00
73429;BME280;61643;49.564;17.412;2023-05-17T03:48:02;97986.53;;;8.62;100.00
73429;BME280;61643;49.564;17.412;2023-05-17T03:50:28;97987.53;;;8.56;100.00
73429;BME280;61643;49.564;17.412;2023-05-17T03:52:57;97992.34;;;8.54;100.00
73429;BME280;61643;49.564;17.412;2023-05-17T03:55:23;97989.09;;;8.52;100.00
73429;BME280;61643;49.564;17.412;2023-05-17T03:57:49;97986.28;;;8.42;100.00
73429;BME280;61643;49.564;17.412;2023-05-17T04:00:15;97999.13;;;8.39;100.00
73429;BME280;61643;49.564;17.412;2023-05-17T04:02:50;98000.25;;;8.44;100.00
73429;BME280;61643;49.564;17.412;2023-05-17T04:05:17;98005.94;;;8.47;100.00
73429;BME280;61643;49.564;17.412;2023-05-17T04:07:43;98002.94;;;8.44;100.00
73429;BME280;61643;49.564;17.412;2023-05-17T04:10:09;98007.94;;;8.35;100.00
73429;BME280;61643;49.564;17.412;2023-05-17T04:12:36;98001.25;;;8.37;100.00
73429;BME280;61643;49.564;17.412;2023-05-17T04:15:02;98008.75;;;8.35;100.00
73429;BME280;61643;49.564;17.412;2023-05-17T04:17:29;98011.09;;;8.32;100.00
73429;BME280;61643;49.564;17.412;2023-05-17T04:19:55;98005.72;;;8.32;100.00
73429;BME280;61643;49.564;17.412;2023-05-17T04:22:21;98013.44;;;8.28;100.00
73429;BME280;61643;49.564;17.412;2023-05-17T04:24:47;98014.50;;;8.27;100.00
73429;BME280;61643;49.564;17.412;2023-05-17T04:27:13;98026.44;;;8.20;100.00
73429;BME280;61643;49.564;17.412;2023-05-17T04:29:39;98024.81;;;8.19;100.00
73429;BME280;61643;49.564;17.412;2023-05-17T04:32:06;98031.72;;;8.15;100.00
73429;BME280;61643;49.564;17.412;2023-05-17T04:34:32;98031.00;;;8.19;100.00
73429;BME280;61643;49.564;17.412;2023-05-17T04:36:58;98033.91;;;8.18;100.00
73429;BME280;61643;49.564;17.412;2023-05-17T04:39:25;98044.25;;;8.09;100.00
73429;BME280;61643;49.564;17.412;2023-05-17T04:41:51;98037.16;;;8.03;100.00
73429;BME280;61643;49.564;17.412;2023-05-17T04:44:17;98030.44;;;8.01;100.00
73429;BME280;61643;49.564;17.412;2023-05-17T04:46:44;98030.69;;;7.99;100.00
73429;BME280;61643;49.564;17.412;2023-05-17T04:49:10;98018.41;;;8.03;100.00
73429;BME280;61643;49.564;17.412;2023-05-17T04:51:36;98030.19;;;8.02;100.00
73429;BME280;61643;49.564;17.412;2023-05-17T04:54:02;98019.16;;;7.99;100.00
73429;BME280;61643;49.564;17.412;2023-05-17T04:56:33;98025.00;;;7.96;100.00
73429;BME280;61643;49.564;17.412;2023-05-17T04:58:59;98016.88;;;7.90;100.00
73429;BME280;61643;49.564;17.412;2023-05-17T05:01:25;98018.66;;;7.85;100.00
73429;BME280;61643;49.564;17.412;2023-05-17T05:03:51;98020.28;;;7.86;100.00
73429;BME280;61643;49.564;17.412;2023-05-17T05:06:17;98027.59;;;7.90;100.00
73429;BME280;61643;49.564;17.412;2023-05-17T05:08:43;98029.56;;;7.95;100.00
73429;BME280;61643;49.564;17.412;2023-05-17T05:11:09;98035.53;;;7.85;100.00
73429;BME280;61643;49.564;17.412;2023-05-17T05:13:35;98043.25;;;7.82;100.00
73429;BME280;61643;49.564;17.412;2023-05-17T05:16:03;98048.38;;;7.83;100.00
73429;BME280;61643;49.564;17.412;2023-05-17T05:18:29;98061.06;;;7.88;100.00
73429;BME280;61643;49.564;17.412;2023-05-17T05:20:55;98063.00;;;7.92;100.00
73429;BME280;61643;49.564;17.412;2023-05-17T05:23:21;98068.50;;;7.86;100.00
73429;BME280;61643;49.564;17.412;2023-05-17T05:25:47;98072.34;;;7.90;100.00
73429;BME280;61643;49.564;17.412;2023-05-17T05:28:13;98072.59;;;7.88;100.00
73429;BME280;61643;49.564;17.412;2023-05-17T05:30:39;98091.09;;;7.90;100.00
73429;BME280;61643;49.564;17.412;2023-05-17T05:33:05;98085.72;;;7.90;100.00
73429;BME280;61643;49.564;17.412;2023-05-17T05:35:31;98092.34;;;7.99;100.00
73429;BME280;61643;49.564;17.412;2023-05-17T05:37:58;98096.78;;;7.93;100.00
73429;BME280;61643;49.564;17.412;2023-05-17T05:40:24;98103.44;;;7.91;100.00
73429;BME280;61643;49.564;17.412;2023-05-17T05:42:50;98109.63;;;7.91;100.00
73429;BME280;61643;49.564;17.412;2023-05-17T05:45:17;98115.06;;;7.97;100.00
73429;BME280;61643;49.564;17.412;2023-05-17T05:47:43;98121.50;;;7.96;100.00
73429;BME280;61643;49.564;17.412;2023-05-17T05:50:09;98123.41;;;8.00;100.00
73429;BME280;61643;49.564;17.412;2023-05-17T05:52:36;98130.09;;;7.98;100.00
73429;BME280;61643;49.564;17.412;2023-05-17T05:55:02;98134.31;;;7.93;100.00
73429;BME280;61643;49.564;17.412;2023-05-17T05:57:28;98136.81;;;8.00;100.00
73429;BME280;61643;49.564;17.412;2023-05-17T05:59:54;98144.97;;;8.05;100.00
73429;BME280;61643;49.564;17.412;2023-05-17T06:02:20;98146.81;;;8.05;100.00
73429;BME280;61643;49.564;17.412;2023-05-17T06:04:46;98143.91;;;8.06;100.00
73429;BME280;61643;49.564;17.412;2023-05-17T06:07:13;98134.34;;;8.10;100.00
73429;BME280;61643;49.564;17.412;2023-05-17T06:09:40;98132.22;;;8.12;100.00
73429;BME280;61643;49.564;17.412;2023-05-17T06:12:07;98142.22;;;8.17;100.00
73429;BME280;61643;49.564;17.412;2023-05-17T06:14:33;98137.56;;;8.12;100.00
73429;BME280;61643;49.564;17.412;2023-05-17T06:16:59;98145.63;;;8.12;100.00
73429;BME280;61643;49.564;17.412;2023-05-17T06:19:25;98139.00;;;8.03;100.00
73429;BME280;61643;49.564;17.412;2023-05-17T06:21:51;98144.84;;;8.00;100.00
73429;BME280;61643;49.564;17.412;2023-05-17T06:24:17;98153.97;;;7.99;100.00
73429;BME280;61643;49.564;17.412;2023-05-17T06:26:43;98153.97;;;7.99;100.00
73429;BME280;61643;49.564;17.412;2023-05-17T06:29:09;98154.03;;;7.87;100.00
73429;BME280;61643;49.564;17.412;2023-05-17T06:31:35;98154.75;;;7.83;100.00
73429;BME280;61643;49.564;17.412;2023-05-17T06:34:01;98151.50;;;7.81;100.00
73429;BME280;61643;49.564;17.412;2023-05-17T06:36:27;98158.94;;;7.79;100.00
73429;BME280;61643;49.564;17.412;2023-05-17T06:38:53;98160.28;;;7.65;100.00
73429;BME280;61643;49.564;17.412;2023-05-17T06:41:19;98164.84;;;7.64;100.00
73429;BME280;61643;49.564;17.412;2023-05-17T06:43:45;98164.09;;;7.52;100.00
73429;BME280;61643;49.564;17.412;2023-05-17T06:46:11;98173.03;;;7.58;100.00
73429;BME280;61643;49.564;17.412;2023-05-17T06:48:37;98173.97;;;7.52;100.00
73429;BME280;61643;49.564;17.412;2023-05-17T06:51:03;98181.19;;;7.51;100.00
73429;BME280;61643;49.564;17.412;2023-05-17T06:53:29;98178.25;;;7.53;100.00
73429;BME280;61643;49.564;17.412;2023-05-17T06:55:55;98181.00;;;7.41;100.00
73429;BME280;61643;49.564;17.412;2023-05-17T06:58:21;98188.97;;;7.53;100.00
73429;BME280;61643;49.564;17.412;2023-05-17T07:00:47;98189.94;;;7.47;100.00
73429;BME280;61643;49.564;17.412;2023-05-17T07:03:13;98193.78;;;7.39;100.00
73429;BME280;61643;49.564;17.412;2023-05-17T07:05:39;98189.97;;;7.35;100.00
73429;BME280;61643;49.564;17.412;2023-05-17T07:08:05;98182.84;;;7.40;100.00
73429;BME280;61643;49.564;17.412;2023-05-17T07:10:30;98185.28;;;7.42;100.00
73429;BME280;61643;49.564;17.412;2023-05-17T07:12:57;98187.13;;;7.41;100.00
73429;BME280;61643;49.564;17.412;2023-05-17T07:15:24;98197.16;;;7.46;100.00
73429;BME280;61643;49.564;17.412;2023-05-17T07:17:49;98206.00;;;7.47;100.00
73429;BME280;61643;49.564;17.412;2023-05-17T07:20:15;98198.66;;;7.54;100.00
73429;BME280;61643;49.564;17.412;2023-05-17T07:22:41;98197.59;;;7.55;100.00
73429;BME280;61643;49.564;17.412;2023-05-17T07:25:08;98208.31;;;7.55;100.00
73429;BME280;61643;49.564;17.412;2023-05-17T07:27:35;98208.47;;;7.48;100.00
73429;BME280;61643;49.564;17.412;2023-05-17T07:30:01;98210.53;;;7.46;100.00
73429;BME280;61643;49.564;17.412;2023-05-17T07:32:28;98211.50;;;7.40;100.00
73429;BME280;61643;49.564;17.412;2023-05-17T07:34:54;98220.56;;;7.51;100.00
73429;BME280;61643;49.564;17.412;2023-05-17T07:37:20;98228.25;;;7.47;100.00
73429;BME280;61643;49.564;17.412;2023-05-17T07:39:45;98229.28;;;7.46;100.00
73429;BME280;61643;49.564;17.412;2023-05-17T07:42:11;98233.47;;;7.42;100.00
73429;BME280;61643;49.564;17.412;2023-05-17T07:44:37;98232.56;;;7.36;100.00
73429;BME280;61643;49.564;17.412;2023-05-17T07:47:03;98233.59;;;7.47;100.00
73429;BME280;61643;49.564;17.412;2023-05-17T07:49:30;98238.72;;;7.49;100.00
73429;BME280;61643;49.564;17.412;2023-05-17T07:51:56;98244.88;;;7.49;100.00
73429;BME280;61643;49.564;17.412;2023-05-17T07:54:26;98233.38;;;7.49;100.00
73429;BME280;61643;49.564;17.412;2023-05-17T07:56:52;98233.13;;;7.50;100.00
73429;BME280;61643;49.564;17.412;2023-05-17T07:59:23;98240.47;;;7.55;100.00
73429;BME280;61643;49.564;17.412;2023-05-17T08:01:49;98240.00;;;7.46;100.00
73429;BME280;61643;49.564;17.412;2023-05-17T08:04:15;98246.38;;;7.57;100.00
73429;BME280;61643;49.564;17.412;2023-05-17T08:06:42;98260.03;;;7.55;100.00
73429;BME280;61643;49.564;17.412;2023-05-17T08:09:10;98256.19;;;7.39;100.00
73429;BME280;61643;49.564;17.412;2023-05-17T08:11:36;98262.50;;;7.45;100.00
73429;BME280;61643;49.564;17.412;2023-05-17T08:14:02;98265.25;;;7.50;100.00
73429;BME280;61643;49.564;17.412;2023-05-17T08:16:28;98258.03;;;7.51;100.00
73429;BME280;61643;49.564;17.412;2023-05-17T08:18:54;98254.47;;;7.45;100.00
73429;BME280;61643;49.564;17.412;2023-05-17T08:21:20;98261.19;;;7.48;100.00
73429;BME280;61643;49.564;17.412;2023-05-17T08:23:47;98265.38;;;7.43;100.00
73429;BME280;61643;49.564;17.412;2023-05-17T08:26:13;98265.50;;;7.49;100.00
73429;BME280;61643;49.564;17.412;2023-05-17T08:28:39;98265.16;;;7.45;100.00
73429;BME280;61643;49.564;17.412;2023-05-17T08:31:05;98268.53;;;7.40;100.00
73429;BME280;61643;49.564;17.412;2023-05-17T08:33:31;98271.31;;;7.46;100.00
73429;BME280;61643;49.564;17.412;2023-05-17T08:35:58;98277.50;;;7.46;100.00
73429;BME280;61643;49.564;17.412;2023-05-17T08:38:26;98286.81;;;7.55;100.00
73429;BME280;61643;49.564;17.412;2023-05-17T08:40:55;98285.97;;;7.55;100.00
73429;BME280;61643;49.564;17.412;2023-05-17T08:43:23;98282.00;;;7.57;100.00
73429;BME280;61643;49.564;17.412;2023-05-17T08:45:50;98284.69;;;7.57;100.00
73429;BME280;61643;49.564;17.412;2023-05-17T08:48:18;98292.84;;;7.62;100.00
73429;BME280;61643;49.564;17.412;2023-05-17T08:50:49;98290.72;;;7.64;100.00
73429;BME280;61643;49.564;17.412;2023-05-17T08:53:16;98292.50;;;7.59;100.00
73429;BME280;61643;49.564;17.412;2023-05-17T08:55:45;98296.44;;;7.56;100.00
73429;BME280;61643;49.564;17.412;2023-05-17T08:58:24;98291.91;;;7.57;100.00
73429;BME280;61643;49.564;17.412;2023-05-17T09:00:53;98296.84;;;7.36;100.00
73429;BME280;61643;49.564;17.412;2023-05-17T09:03:21;98313.00;;;7.41;100.00
73429;BME280;61643;49.564;17.412;2023-05-17T09:05:52;98316.06;;;7.45;100.00
73429;BME280;61643;49.564;17.412;2023-05-17T09:08:21;98315.91;;;7.52;100.00
73429;BME280;61643;49.564;17.412;2023-05-17T09:10:48;98318.13;;;7.55;100.00
73429;BME280;61643;49.564;17.412;2023-05-17T09:13:15;98322.53;;;7.49;100.00
73429;BME280;61643;49.564;17.412;2023-05-17T09:15:42;98307.28;;;7.50;100.00
73429;BME280;61643;49.564;17.412;2023-05-17T09:18:12;98317.66;;;7.46;100.00
73429;BME280;61643;49.564;17.412;2023-05-17T09:20:38;98313.81;;;7.54;100.00
73429;BME280;61643;49.564;17.412;2023-05-17T09:23:07;98329.41;;;7.57;100.00
73429;BME280;61643;49.564;17.412;2023-05-17T09:25:48;98321.38;;;7.57;100.00
73429;BME280;61643;49.564;17.412;2023-05-17T09:28:17;98325.59;;;7.41;100.00
73429;BME280;61643;49.564;17.412;2023-05-17T09:30:47;98329.78;;;7.49;100.00
73429;BME280;61643;49.564;17.412;2023-05-17T09:33:13;98328.97;;;7.48;100.00
73429;BME280;61643;49.564;17.412;2023-05-17T09:35:39;98332.34;;;7.43;100.00
73429;BME280;61643;49.564;17.412;2023-05-17T09:38:09;98336.28;;;7.53;100.00
73429;BME280;61643;49.564;17.412;2023-05-17T09:40:40;98332.81;;;7.40;100.00
73429;BME280;61643;49.564;17.412;2023-05-17T09:43:06;98339.06;;;7.34;100.00
73429;BME280;61643;49.564;17.412;2023-05-17T09:45:33;98335.81;;;7.32;100.00
73429;BME280;61643;49.564;17.412;2023-05-17T09:48:16;98344.06;;;7.31;100.00
73429;BME280;61643;49.564;17.412;2023-05-17T09:50:49;98353.63;;;7.38;100.00
73429;BME280;61643;49.564;17.412;2023-05-17T09:55:51;98353.06;;;7.36;100.00
73429;BME280;61643;49.564;17.412;2023-05-17T09:58:17;98354.44;;;7.39;100.00
73429;BME280;61643;49.564;17.412;2023-05-17T10:00:44;98357.81;;;7.46;100.00
73429;BME280;61643;49.564;17.412;2023-05-17T10:03:12;98358.91;;;7.45;100.00
73429;BME280;61643;49.564;17.412;2023-05-17T10:05:41;98362.13;;;7.35;100.00
73429;BME280;61643;49.564;17.412;2023-05-17T10:08:10;98359.09;;;7.32;100.00
73429;BME280;61643;49.564;17.412;2023-05-17T10:10:40;98370.41;;;7.34;100.00
73429;BME280;61643;49.564;17.412;2023-05-17T10:13:06;98373.31;;;7.32;100.00
73429;BME280;61643;49.564;17.412;2023-05-17T10:15:34;98381.00;;;7.40;100.00
73429;BME280;61643;49.564;17.412;2023-05-17T10:18:02;98389.03;;;7.40;100.00
73429;BME280;61643;49.564;17.412;2023-05-17T10:20:28;98394.41;;;7.40;100.00
73429;BME280;61643;49.564;17.412;2023-05-17T10:22:54;98400.56;;;7.41;100.00
73429;BME280;61643;49.564;17.412;2023-05-17T10:25:22;98396.72;;;7.37;100.00
73429;BME280;61643;49.564;17.412;2023-05-17T10:27:51;98397.97;;;7.34;100.00
73429;BME280;61643;49.564;17.412;2023-05-17T10:30:18;98396.00;;;7.41;100.00
73429;BME280;61643;49.564;17.412;2023-05-17T10:32:44;98402.44;;;7.40;100.00
73429;BME280;61643;49.564;17.412;2023-05-17T10:35:11;98399.75;;;7.40;100.00
73429;BME280;61643;49.564;17.412;2023-05-17T10:37:40;98399.97;;;7.39;100.00
73429;BME280;61643;49.564;17.412;2023-05-17T10:40:07;98398.09;;;7.39;100.00
73429;BME280;61643;49.564;17.412;2023-05-17T10:42:46;98395.09;;;7.36;100.00
73429;BME280;61643;49.564;17.412;2023-05-17T10:45:15;98379.59;;;7.26;100.00
73429;BME280;61643;49.564;17.412;2023-05-17T10:47:44;98382.63;;;7.30;100.00
73429;BME280;61643;49.564;17.412;2023-05-17T10:50:11;98378.78;;;7.37;100.00
73429;BME280;61643;49.564;17.412;2023-05-17T10:52:39;98384.94;;;7.38;100.00
73429;BME280;61643;49.564;17.412;2023-05-17T10:55:10;98368.19;;;7.42;100.00
73429;BME280;61643;49.564;17.412;2023-05-17T10:57:37;98373.78;;;7.41;100.00
73429;BME280;61643;49.564;17.412;2023-05-17T11:00:06;98385.19;;;7.48;100.00
73429;BME280;61643;49.564;17.412;2023-05-17T11:02:39;98398.94;;;7.52;100.00
73429;BME280;61643;49.564;17.412;2023-05-17T11:05:05;98398.00;;;7.58;100.00
73429;BME280;61643;49.564;17.412;2023-05-17T11:07:32;98401.63;;;7.52;100.00
73429;BME280;61643;49.564;17.412;2023-05-17T11:14:57;98409.41;;;7.65;100.00
73429;BME280;61643;49.564;17.412;2023-05-17T11:17:33;98410.00;;;7.67;100.00
73429;BME280;61643;49.564;17.412;2023-05-17T11:20:02;98414.09;;;7.69;100.00
73429;BME280;61643;49.564;17.412;2023-05-17T11:22:42;98414.09;;;7.69;100.00
73429;BME280;61643;49.564;17.412;2023-05-17T11:25:14;98418.03;;;7.78;100.00
73429;BME280;61643;49.564;17.412;2023-05-17T11:27:46;98427.81;;;7.84;100.00
73429;BME280;61643;49.564;17.412;2023-05-17T11:30:22;98432.47;;;7.89;100.00
73429;BME280;61643;49.564;17.412;2023-05-17T11:32:53;98426.53;;;7.87;100.00
73429;BME280;61643;49.564;17.412;2023-05-17T11:35:24;98427.56;;;7.86;100.00
73429;BME280;61643;49.564;17.412;2023-05-17T11:37:52;98421.75;;;7.89;100.00
73429;BME280;61643;49.564;17.412;2023-05-17T11:40:26;98420.47;;;7.91;100.00
73429;BME280;61643;49.564;17.412;2023-05-17T11:43:12;98428.28;;;7.93;100.00
73429;BME280;61643;49.564;17.412;2023-05-17T11:45:47;98435.28;;;7.94;100.00
73429;BME280;61643;49.564;17.412;2023-05-17T11:48:14;98436.91;;;7.95;100.00
73429;BME280;61643;49.564;17.412;2023-05-17T11:50:43;98441.78;;;7.98;100.00
73429;BME280;61643;49.564;17.412;2023-05-17T11:53:09;98440.50;;;8.01;100.00
73429;BME280;61643;49.564;17.412;2023-05-17T11:55:40;98443.19;;;8.01;100.00
73429;BME280;61643;49.564;17.412;2023-05-17T11:58:07;98451.81;;;8.03;100.00
73429;BME280;61643;49.564;17.412;2023-05-17T12:00:37;98452.03;;;8.01;100.00
73429;BME280;61643;49.564;17.412;2023-05-17T12:03:20;98450.28;;;8.07;100.00
73429;BME280;61643;49.564;17.412;2023-05-17T12:05:49;98453.69;;;8.02;100.00
73429;BME280;61643;49.564;17.412;2023-05-17T12:08:17;98465.66;;;8.11;100.00
73429;BME280;61643;49.564;17.412;2023-05-17T12:10:45;98470.34;;;8.16;100.00
73429;BME280;61643;49.564;17.412;2023-05-17T12:13:12;98472.31;;;8.09;100.00
73429;BME280;61643;49.564;17.412;2023-05-17T12:15:38;98470.47;;;8.09;100.00
73429;BME280;61643;49.564;17.412;2023-05-17T12:18:05;98468.81;;;8.08;100.00
73429;BME280;61643;49.564;17.412;2023-05-17T12:20:31;98475.13;;;8.14;100.00
73429;BME280;61643;49.564;17.412;2023-05-17T12:22:57;98470.94;;;8.06;100.00
73429;BME280;61643;49.564;17.412;2023-05-17T12:25:23;98472.88;;;8.11;100.00
73429;BME280;61643;49.564;17.412;2023-05-17T12:28:15;98481.19;;;8.21;100.00
73429;BME280;61643;49.564;17.412;2023-05-17T12:30:56;98478.59;;;8.14;100.00
73429;BME280;61643;49.564;17.412;2023-05-17T12:33:24;98488.63;;;8.19;100.00
73429;BME280;61643;49.564;17.412;2023-05-17T12:35:51;98481.97;;;8.21;100.00
73429;BME280;61643;49.564;17.412;2023-05-17T12:38:17;98488.75;;;8.24;100.00
73429;BME280;61643;49.564;17.412;2023-05-17T12:40:44;98485.59;;;8.15;100.00
73429;BME280;61643;49.564;17.412;2023-05-17T12:43:10;98487.34;;;8.21;100.00
73429;BME280;61643;49.564;17.412;2023-05-17T12:45:40;98501.22;;;8.18;100.00
73429;BME280;61643;49.564;17.412;2023-05-17T12:48:06;98490.72;;;8.28;100.00
73429;BME280;61643;49.564;17.412;2023-05-17T12:50:32;98497.97;;;8.28;100.00
73429;BME280;61643;49.564;17.412;2023-05-17T12:52:58;98493.19;;;8.30;100.00
73429;BME280;61643;49.564;17.412;2023-05-17T12:55:24;98495.88;;;8.30;100.00
73429;BME280;61643;49.564;17.412;2023-05-17T12:57:53;98496.69;;;8.30;100.00
73429;BME280;61643;49.564;17.412;2023-05-17T13:00:20;98496.53;;;8.25;100.00
73429;BME280;61643;49.564;17.412;2023-05-17T13:02:46;98497.97;;;8.28;100.00
73429;BME280;61643;49.564;17.412;2023-05-17T13:05:14;98491.69;;;8.34;100.00
73429;BME280;61643;49.564;17.412;2023-05-17T13:07:40;98488.19;;;8.33;100.00
73429;BME280;61643;49.564;17.412;2023-05-17T13:10:27;98480.44;;;8.25;100.00